sensor_id;sensor_type;location;lat;lon;timestamp;temperature;humidity
34542;DHT22;20784;51.332;12.410;2023-02-28T01:41:12;1.90;99.90
34542;DHT22;20784;51.332;12.410;2023-02-28T01:53:56;1.80;99.90
34542;DHT22;20784;51.332;12.410;2023-02-28T01:56:37;2.00;99.90
34542;DHT22;20784;51.332;12.410;2023-02-28T01:59:42;1.80;99.90
34542;DHT22;20784;51.332;12.410;2023-02-28T02:02:24;1.90;99.90
34542;DHT22;20784;51.332;12.410;2023-02-28T02:05:24;1.90;99.90
34542;DHT22;20784;51.332;12.410;2023-02-28T02:08:49;1.90;99.90
34542;DHT22;20784;51.332;12.410;2023-02-28T02:11:19;1.80;99.90
34542;DHT22;20784;51.332;12.410;2023-02-28T02:42:38;1.80;99.90
34542;DHT22;20784;51.332;12.410;2023-02-28T02:45:24;1.80;99.90
34542;DHT22;20784;51.332;12.410;2023-02-28T02:48:25;1.70;99.90
34542;DHT22;20784;51.332;12.410;2023-02-28T02:50:58;1.70;99.90
34542;DHT22;20784;51.332;12.410;2023-02-28T02:53:44;1.70;99.90
34542;DHT22;20784;51.332;12.410;2023-02-28T02:56:18;1.60;99.90
34542;DHT22;20784;51.332;12.410;2023-02-28T02:58:55;1.80;99.90
34542;DHT22;20784;51.332;12.410;2023-02-28T03:02:04;1.50;99.90
34542;DHT22;20784;51.332;12.410;2023-02-28T03:04:57;1.60;99.90
34542;DHT22;20784;51.332;12.410;2023-02-28T03:07:32;1.50;99.90
34542;DHT22;20784;51.332;12.410;2023-02-28T03:10:48;1.40;99.90
34542;DHT22;20784;51.332;12.410;2023-02-28T03:16:34;1.50;99.90
34542;DHT22;20784;51.332;12.410;2023-02-28T03:41:05;1.60;99.90
34542;DHT22;20784;51.332;12.410;2023-02-28T03:44:00;1.60;99.90
34542;DHT22;20784;51.332;12.410;2023-02-28T03:49:49;1.40;99.90
34542;DHT22;20784;51.332;12.410;2023-02-28T03:55:17;1.40;99.90
34542;DHT22;20784;51.332;12.410;2023-02-28T03:58:02;1.70;99.90
34542;DHT22;20784;51.332;12.410;2023-02-28T04:04:33;1.30;99.90
34542;DHT22;20784;51.332;12.410;2023-02-28T04:10:30;1.50;99.90
34542;DHT22;20784;51.332;12.410;2023-02-28T04:23:55;1.40;99.90
34542;DHT22;20784;51.332;12.410;2023-02-28T04:30:11;1.30;99.90
34542;DHT22;20784;51.332;12.410;2023-02-28T04:56:16;1.30;99.90
34542;DHT22;20784;51.332;12.410;2023-02-28T04:58:59;1.50;99.90
34542;DHT22;20784;51.332;12.410;2023-02-28T05:05:05;1.30;99.90
34542;DHT22;20784;51.332;12.410;2023-02-28T05:08:07;1.50;99.90
34542;DHT22;20784;51.332;12.410;2023-02-28T05:14:18;1.40;99.90
34542;DHT22;20784;51.332;12.410;2023-02-28T05:16:47;1.40;99.90
34542;DHT22;20784;51.332;12.410;2023-02-28T05:19:15;1.30;99.90
34542;DHT22;20784;51.332;12.410;2023-02-28T05:28:43;1.30;99.90
34542;DHT22;20784;51.332;12.410;2023-02-28T05:31:41;1.30;99.90
34542;DHT22;20784;51.332;12.410;2023-02-28T05:34:27;1.30;99.90
34542;DHT22;20784;51.332;12.410;2023-02-28T05:42:26;1.30;99.90
34542;DHT22;20784;51.332;12.410;2023-02-28T05:45:18;1.50;99.90
34542;DHT22;20784;51.332;12.410;2023-02-28T05:48:07;1.50;99.90
34542;DHT22;20784;51.332;12.410;2023-02-28T05:50:39;1.30;99.90
34542;DHT22;20784;51.332;12.410;2023-02-28T05:53:10;1.30;99.90
34542;DHT22;20784;51.332;12.410;2023-02-28T05:55:38;1.50;99.90
34542;DHT22;20784;51.332;12.410;2023-02-28T05:58:21;1.60;99.90
34542;DHT22;20784;51.332;12.410;2023-02-28T06:00:50;1.60;99.90
34542;DHT22;20784;51.332;12.410;2023-02-28T06:03:34;1.50;99.90
34542;DHT22;20784;51.332;12.410;2023-02-28T06:05:59;1.60;99.90
34542;DHT22;20784;51.332;12.410;2023-02-28T06:08:25;1.50;99.90
34542;DHT22;20784;51.332;12.410;2023-02-28T06:10:51;1.50;99.90
34542;DHT22;20784;51.332;12.410;2023-02-28T06:13:38;1.40;99.90
34542;DHT22;20784;51.332;12.410;2023-02-28T06:16:23;1.40;99.90
34542;DHT22;20784;51.332;12.410;2023-02-28T06:19:09;1.40;99.90
34542;DHT22;20784;51.332;12.410;2023-02-28T06:21:40;1.30;99.90
34542;DHT22;20784;51.332;12.410;2023-02-28T06:26:57;1.30;99.90
34542;DHT22;20784;51.332;12.410;2023-02-28T06:29:36;1.20;99.90
34542;DHT22;20784;51.332;12.410;2023-02-28T06:32:26;1.10;99.90
34542;DHT22;20784;51.332;12.410;2023-02-28T06:34:54;1.10;99.90
34542;DHT22;20784;51.332;12.410;2023-02-28T06:37:32;1.10;99.90
34542;DHT22;20784;51.332;12.410;2023-02-28T06:39:58;1.10;99.90
34542;DHT22;20784;51.332;12.410;2023-02-28T06:42:27;1.10;99.90
34542;DHT22;20784;51.332;12.410;2023-02-28T06:44:55;1.10;99.90
34542;DHT22;20784;51.332;12.410;2023-02-28T06:47:24;1.00;99.90
34542;DHT22;20784;51.332;12.410;2023-02-28T06:49:50;0.90;99.90
34542;DHT22;20784;51.332;12.410;2023-02-28T06:52:16;1.00;99.90
34542;DHT22;20784;51.332;12.410;2023-02-28T06:54:42;1.00;99.90
34542;DHT22;20784;51.332;12.410;2023-02-28T06:57:13;1.00;99.90
34542;DHT22;20784;51.332;12.410;2023-02-28T06:59:38;1.10;99.90
34542;DHT22;20784;51.332;12.410;2023-02-28T07:02:04;1.30;99.90
34542;DHT22;20784;51.332;12.410;2023-02-28T07:04:32;1.70;99.90
34542;DHT22;20784;51.332;12.410;2023-02-28T07:14:09;3.50;99.90
34542;DHT22;20784;51.332;12.410;2023-02-28T07:17:09;4.60;99.90
34542;DHT22;20784;51.332;12.410;2023-02-28T07:20:02;5.90;99.90
34542;DHT22;20784;51.332;12.410;2023-02-28T07:22:53;6.50;99.90
34542;DHT22;20784;51.332;12.410;2023-02-28T07:29:18;7.50;99.90
34542;DHT22;20784;51.332;12.410;2023-02-28T07:31:46;7.80;99.90
34542;DHT22;20784;51.332;12.410;2023-02-28T07:34:28;7.70;99.90
34542;DHT22;20784;51.332;12.410;2023-02-28T07:37:02;7.30;99.90
34542;DHT22;20784;51.332;12.410;2023-02-28T07:40:01;6.50;99.90
34542;DHT22;20784;51.332;12.410;2023-02-28T07:43:19;6.10;99.90
34542;DHT22;20784;51.332;12.410;2023-02-28T07:53:26;5.00;99.90
34542;DHT22;20784;51.332;12.410;2023-02-28T07:56:02;5.00;99.90
34542;DHT22;20784;51.332;12.410;2023-02-28T07:58:31;5.20;99.90
34542;DHT22;20784;51.332;12.410;2023-02-28T08:01:11;5.10;99.90
34542;DHT22;20784;51.332;12.410;2023-02-28T08:04:16;5.40;99.90
34542;DHT22;20784;51.332;12.410;2023-02-28T08:07:00;5.80;99.90
34542;DHT22;20784;51.332;12.410;2023-02-28T08:12:23;6.20;99.90
34542;DHT22;20784;51.332;12.410;2023-02-28T08:14:51;6.90;99.90
34542;DHT22;20784;51.332;12.410;2023-02-28T08:17:28;7.40;99.90
34542;DHT22;20784;51.332;12.410;2023-02-28T08:20:01;8.00;99.90
34542;DHT22;20784;51.332;12.410;2023-02-28T08:22:39;8.60;99.90
34542;DHT22;20784;51.332;12.410;2023-02-28T08:25:08;9.20;99.90
34542;DHT22;20784;51.332;12.410;2023-02-28T08:27:50;9.80;99.90
34542;DHT22;20784;51.332;12.410;2023-02-28T08:30:18;10.10;99.90
34542;DHT22;20784;51.332;12.410;2023-02-28T08:32:47;10.60;99.90
34542;DHT22;20784;51.332;12.410;2023-02-28T08:35:15;10.60;99.90
34542;DHT22;20784;51.332;12.410;2023-02-28T08:37:40;10.60;99.90
34542;DHT22;20784;51.332;12.410;2023-02-28T08:40:24;10.80;99.90
34542;DHT22;20784;51.332;12.410;2023-02-28T08:42:51;11.30;99.90
34542;DHT22;20784;51.332;12.410;2023-02-28T08:45:35;11.40;99.90
34542;DHT22;20784;51.332;12.410;2023-02-28T08:48:04;11.50;99.90
34542;DHT22;20784;51.332;12.410;2023-02-28T08:50:30;11.80;99.90
34542;DHT22;20784;51.332;12.410;2023-02-28T08:53:01;12.10;99.90
34542;DHT22;20784;51.332;12.410;2023-02-28T08:55:29;11.80;99.90
34542;DHT22;20784;51.332;12.410;2023-02-28T08:57:58;11.70;99.90
34542;DHT22;20784;51.332;12.410;2023-02-28T09:00:23;11.30;99.90
34542;DHT22;20784;51.332;12.410;2023-02-28T09:02:49;11.50;99.90
34542;DHT22;20784;51.332;12.410;2023-02-28T09:05:15;11.80;99.90
34542;DHT22;20784;51.332;12.410;2023-02-28T09:07:40;11.60;99.80
34542;DHT22;20784;51.332;12.410;2023-02-28T09:10:06;11.70;99.90
34542;DHT22;20784;51.332;12.410;2023-02-28T09:12:34;11.50;99.90
34542;DHT22;20784;51.332;12.410;2023-02-28T09:15:01;11.00;99.70
34542;DHT22;20784;51.332;12.410;2023-02-28T09:17:26;10.90;99.90
34542;DHT22;20784;51.332;12.410;2023-02-28T09:19:55;11.60;99.90
34542;DHT22;20784;51.332;12.410;2023-02-28T09:22:20;12.00;99.90
34542;DHT22;20784;51.332;12.410;2023-02-28T09:24:46;12.00;99.70
34542;DHT22;20784;51.332;12.410;2023-02-28T09:27:14;12.10;98.00
34542;DHT22;20784;51.332;12.410;2023-02-28T09:29:43;12.20;97.80
34542;DHT22;20784;51.332;12.410;2023-02-28T09:32:11;12.70;97.00
34542;DHT22;20784;51.332;12.410;2023-02-28T09:34:37;12.10;95.40
34542;DHT22;20784;51.332;12.410;2023-02-28T09:37:03;11.80;95.10
34542;DHT22;20784;51.332;12.410;2023-02-28T09:39:28;11.30;96.60
34542;DHT22;20784;51.332;12.410;2023-02-28T09:41:57;11.50;96.80
34542;DHT22;20784;51.332;12.410;2023-02-28T09:44:31;11.40;95.80
34542;DHT22;20784;51.332;12.410;2023-02-28T09:47:30;11.30;95.50
34542;DHT22;20784;51.332;12.410;2023-02-28T09:50:11;11.10;95.40
34542;DHT22;20784;51.332;12.410;2023-02-28T09:56:01;10.50;97.10
34542;DHT22;20784;51.332;12.410;2023-02-28T09:59:00;9.40;97.10
34542;DHT22;20784;51.332;12.410;2023-02-28T10:14:30;9.40;98.40
34542;DHT22;20784;51.332;12.410;2023-02-28T10:17:10;10.80;98.20
34542;DHT22;20784;51.332;12.410;2023-02-28T10:20:01;11.30;94.70
34542;DHT22;20784;51.332;12.410;2023-02-28T10:22:57;11.30;93.70
34542;DHT22;20784;51.332;12.410;2023-02-28T10:25:26;11.10;94.70
34542;DHT22;20784;51.332;12.410;2023-02-28T10:28:01;11.80;94.40
34542;DHT22;20784;51.332;12.410;2023-02-28T10:30:27;12.50;93.40
34542;DHT22;20784;51.332;12.410;2023-02-28T10:32:53;13.10;92.10
34542;DHT22;20784;51.332;12.410;2023-02-28T10:35:25;13.00;90.20
34542;DHT22;20784;51.332;12.410;2023-02-28T10:37:53;12.80;91.30
34542;DHT22;20784;51.332;12.410;2023-02-28T10:45:26;13.20;92.60
34542;DHT22;20784;51.332;12.410;2023-02-28T10:50:44;13.60;89.30
34542;DHT22;20784;51.332;12.410;2023-02-28T10:55:36;13.20;90.80
34542;DHT22;20784;51.332;12.410;2023-02-28T10:58:02;12.90;90.00
34542;DHT22;20784;51.332;12.410;2023-02-28T11:00:37;12.80;89.60
34542;DHT22;20784;51.332;12.410;2023-02-28T11:03:33;13.20;89.60
34542;DHT22;20784;51.332;12.410;2023-02-28T11:06:05;13.00;89.50
34542;DHT22;20784;51.332;12.410;2023-02-28T11:08:31;13.10;90.00
34542;DHT22;20784;51.332;12.410;2023-02-28T11:10:59;13.70;90.00
34542;DHT22;20784;51.332;12.410;2023-02-28T11:13:35;14.00;87.80
34542;DHT22;20784;51.332;12.410;2023-02-28T11:16:06;14.60;89.30
34542;DHT22;20784;51.332;12.410;2023-02-28T11:19:20;14.30;84.30
34542;DHT22;20784;51.332;12.410;2023-02-28T11:22:05;13.60;87.60
34542;DHT22;20784;51.332;12.410;2023-02-28T11:24:55;13.80;86.50
34542;DHT22;20784;51.332;12.410;2023-02-28T11:29:57;13.50;84.70
34542;DHT22;20784;51.332;12.410;2023-02-28T11:32:28;12.90;89.40
34542;DHT22;20784;51.332;12.410;2023-02-28T11:37:38;13.40;87.50
34542;DHT22;20784;51.332;12.410;2023-02-28T11:40:18;13.60;90.40
34542;DHT22;20784;51.332;12.410;2023-02-28T11:45:59;13.90;86.30
34542;DHT22;20784;51.332;12.410;2023-02-28T11:48:53;14.00;86.60
34542;DHT22;20784;51.332;12.410;2023-02-28T11:51:25;14.20;85.10
34542;DHT22;20784;51.332;12.410;2023-02-28T11:56:47;14.20;85.70
34542;DHT22;20784;51.332;12.410;2023-02-28T12:11:35;12.80;90.00
34542;DHT22;20784;51.332;12.410;2023-02-28T12:14:39;12.80;87.20
34542;DHT22;20784;51.332;12.410;2023-02-28T12:22:35;11.40;90.00
34542;DHT22;20784;51.332;12.410;2023-02-28T12:27:36;11.20;91.20
34542;DHT22;20784;51.332;12.410;2023-02-28T12:30:17;11.60;90.10
34542;DHT22;20784;51.332;12.410;2023-02-28T12:32:49;11.30;90.30
34542;DHT22;20784;51.332;12.410;2023-02-28T12:35:48;10.90;90.80
34542;DHT22;20784;51.332;12.410;2023-02-28T12:38:39;11.00;91.00
34542;DHT22;20784;51.332;12.410;2023-02-28T12:41:29;11.10;90.40
34542;DHT22;20784;51.332;12.410;2023-02-28T12:44:17;11.20;90.20
34542;DHT22;20784;51.332;12.410;2023-02-28T12:46:53;11.30;92.70
34542;DHT22;20784;51.332;12.410;2023-02-28T12:55:15;10.00;93.10
34542;DHT22;20784;51.332;12.410;2023-02-28T12:58:12;10.00;93.70
34542;DHT22;20784;51.332;12.410;2023-02-28T13:09:18;9.80;95.00
34542;DHT22;20784;51.332;12.410;2023-02-28T13:11:46;9.50;95.00
34542;DHT22;20784;51.332;12.410;2023-02-28T13:19:26;9.60;94.60
34542;DHT22;20784;51.332;12.410;2023-02-28T13:21:52;9.80;95.30
34542;DHT22;20784;51.332;12.410;2023-02-28T13:24:39;9.50;95.20
34542;DHT22;20784;51.332;12.410;2023-02-28T13:27:50;9.40;95.70
34542;DHT22;20784;51.332;12.410;2023-02-28T13:29:56;9.50;96.30
34542;DHT22;20784;51.332;12.410;2023-02-28T13:39:47;9.40;95.00
34542;DHT22;20784;51.332;12.410;2023-02-28T13:42:36;9.20;96.00
34542;DHT22;20784;51.332;12.410;2023-02-28T13:47:40;9.20;96.60
34542;DHT22;20784;51.332;12.410;2023-02-28T13:53:04;9.60;96.10
34542;DHT22;20784;51.332;12.410;2023-02-28T13:55:37;9.40;96.10
34542;DHT22;20784;51.332;12.410;2023-02-28T13:58:19;9.30;96.50
34542;DHT22;20784;51.332;12.410;2023-02-28T14:06:50;8.60;97.40
34542;DHT22;20784;51.332;12.410;2023-02-28T14:12:17;8.20;98.10
34542;DHT22;20784;51.332;12.410;2023-02-28T14:17:14;8.10;98.60
34542;DHT22;20784;51.332;12.410;2023-02-28T14:19:47;7.80;98.00
34542;DHT22;20784;51.332;12.410;2023-02-28T14:25:39;7.40;99.40
34542;DHT22;20784;51.332;12.410;2023-02-28T14:28:14;7.30;99.90
34542;DHT22;20784;51.332;12.410;2023-02-28T14:30:53;7.30;99.90
34542;DHT22;20784;51.332;12.410;2023-02-28T14:33:23;7.40;99.90
34542;DHT22;20784;51.332;12.410;2023-02-28T14:36:21;7.30;99.90
34542;DHT22;20784;51.332;12.410;2023-02-28T14:41:56;7.20;99.90
34542;DHT22;20784;51.332;12.410;2023-02-28T14:44:28;7.00;99.90
34542;DHT22;20784;51.332;12.410;2023-02-28T14:46:56;6.90;99.90
34542;DHT22;20784;51.332;12.410;2023-02-28T14:49:30;7.00;99.90
34542;DHT22;20784;51.332;12.410;2023-02-28T14:54:37;6.90;99.90
34542;DHT22;20784;51.332;12.410;2023-02-28T14:57:04;6.90;99.90
34542;DHT22;20784;51.332;12.410;2023-02-28T14:59:33;6.80;99.90
34542;DHT22;20784;51.332;12.410;2023-02-28T15:02:19;6.70;99.90
34542;DHT22;20784;51.332;12.410;2023-02-28T15:04:53;6.70;99.90
34542;DHT22;20784;51.332;12.410;2023-02-28T15:07:29;6.80;99.90
34542;DHT22;20784;51.332;12.410;2023-02-28T15:10:21;6.80;99.90
34542;DHT22;20784;51.332;12.410;2023-02-28T15:13:02;6.80;99.90
34542;DHT22;20784;51.332;12.410;2023-02-28T15:18:37;6.50;99.90
34542;DHT22;20784;51.332;12.410;2023-02-28T15:21:10;6.50;99.90
34542;DHT22;20784;51.332;12.410;2023-02-28T15:23:40;6.40;99.90
34542;DHT22;20784;51.332;12.410;2023-02-28T15:26:14;6.20;99.90
34542;DHT22;20784;51.332;12.410;2023-02-28T15:28:42;6.20;99.90
34542;DHT22;20784;51.332;12.410;2023-02-28T15:31:27;6.20;99.90
34542;DHT22;20784;51.332;12.410;2023-02-28T15:34:03;6.20;99.90
34542;DHT22;20784;51.332;12.410;2023-02-28T15:36:31;6.30;99.90
34542;DHT22;20784;51.332;12.410;2023-02-28T15:38:59;6.00;99.90
34542;DHT22;20784;51.332;12.410;2023-02-28T15:41:29;6.00;99.90
34542;DHT22;20784;51.332;12.410;2023-02-28T15:44:14;6.00;99.90
34542;DHT22;20784;51.332;12.410;2023-02-28T15:46:44;5.80;99.90
34542;DHT22;20784;51.332;12.410;2023-02-28T15:49:25;5.90;99.90
34542;DHT22;20784;51.332;12.410;2023-02-28T15:51:52;5.70;99.90
34542;DHT22;20784;51.332;12.410;2023-02-28T15:54:29;5.70;99.90
34542;DHT22;20784;51.332;12.410;2023-02-28T15:57:10;5.70;99.90
34542;DHT22;20784;51.332;12.410;2023-02-28T15:59:37;5.70;99.90
34542;DHT22;20784;51.332;12.410;2023-02-28T16:04:53;5.70;99.90
34542;DHT22;20784;51.332;12.410;2023-02-28T16:07:19;5.60;99.90
34542;DHT22;20784;51.332;12.410;2023-02-28T16:09:47;5.50;99.90
34542;DHT22;20784;51.332;12.410;2023-02-28T16:12:16;5.50;99.90
34542;DHT22;20784;51.332;12.410;2023-02-28T16:14:51;5.50;99.90
34542;DHT22;20784;51.332;12.410;2023-02-28T16:17:23;5.40;99.90
34542;DHT22;20784;51.332;12.410;2023-02-28T16:19:49;5.30;99.90
34542;DHT22;20784;51.332;12.410;2023-02-28T16:22:15;5.20;99.90
34542;DHT22;20784;51.332;12.410;2023-02-28T16:24:41;5.20;99.90
34542;DHT22;20784;51.332;12.410;2023-02-28T16:27:27;5.20;99.90
34542;DHT22;20784;51.332;12.410;2023-02-28T16:29:55;5.20;99.90
34542;DHT22;20784;51.332;12.410;2023-02-28T16:32:20;5.20;99.90
34542;DHT22;20784;51.332;12.410;2023-02-28T16:34:46;5.10;99.90
34542;DHT22;20784;51.332;12.410;2023-02-28T16:37:18;5.10;99.90
34542;DHT22;20784;51.332;12.410;2023-02-28T16:39:45;5.20;99.90
34542;DHT22;20784;51.332;12.410;2023-02-28T16:42:20;5.10;99.90
34542;DHT22;20784;51.332;12.410;2023-02-28T16:44:47;5.10;99.90
34542;DHT22;20784;51.332;12.410;2023-02-28T16:47:13;5.00;99.90
34542;DHT22;20784;51.332;12.410;2023-02-28T16:49:39;4.90;99.90
34542;DHT22;20784;51.332;12.410;2023-02-28T16:52:07;4.90;99.90
34542;DHT22;20784;51.332;12.410;2023-02-28T16:54:33;4.80;99.90
34542;DHT22;20784;51.332;12.410;2023-02-28T16:56:59;4.70;99.90
34542;DHT22;20784;51.332;12.410;2023-02-28T16:59:26;4.80;99.90
34542;DHT22;20784;51.332;12.410;2023-02-28T17:01:53;4.70;99.90
34542;DHT22;20784;51.332;12.410;2023-02-28T17:04:18;4.70;99.90
34542;DHT22;20784;51.332;12.410;2023-02-28T17:06:47;4.80;99.90
34542;DHT22;20784;51.332;12.410;2023-02-28T17:09:18;4.70;99.90
34542;DHT22;20784;51.332;12.410;2023-02-28T17:12:02;4.70;99.90
34542;DHT22;20784;51.332;12.410;2023-02-28T17:15:00;4.60;99.90
34542;DHT22;20784;51.332;12.410;2023-02-28T17:17:29;4.60;99.90
34542;DHT22;20784;51.332;12.410;2023-02-28T17:19:55;4.60;99.90
34542;DHT22;20784;51.332;12.410;2023-02-28T17:22:21;4.50;99.90
34542;DHT22;20784;51.332;12.410;2023-02-28T17:24:46;4.40;99.90
34542;DHT22;20784;51.332;12.410;2023-02-28T17:27:15;4.30;99.90
34542;DHT22;20784;51.332;12.410;2023-02-28T17:29:40;4.20;99.90
34542;DHT22;20784;51.332;12.410;2023-02-28T17:32:07;4.30;99.90
34542;DHT22;20784;51.332;12.410;2023-02-28T17:34:32;4.10;99.90
34542;DHT22;20784;51.332;12.410;2023-02-28T17:36:58;4.10;99.90
34542;DHT22;20784;51.332;12.410;2023-02-28T17:39:24;4.00;99.90
34542;DHT22;20784;51.332;12.410;2023-02-28T17:41:56;3.90;99.90
34542;DHT22;20784;51.332;12.410;2023-02-28T17:44:22;3.80;99.90
34542;DHT22;20784;51.332;12.410;2023-02-28T17:46:49;3.80;99.90
34542;DHT22;20784;51.332;12.410;2023-02-28T17:49:19;3.80;99.90
34542;DHT22;20784;51.332;12.410;2023-02-28T17:51:45;3.70;99.90
34542;DHT22;20784;51.332;12.410;2023-02-28T17:54:11;3.60;99.90
34542;DHT22;20784;51.332;12.410;2023-02-28T17:56:39;3.60;99.90
34542;DHT22;20784;51.332;12.410;2023-02-28T17:59:08;3.50;99.90
34542;DHT22;20784;51.332;12.410;2023-02-28T18:01:37;3.50;99.90
34542;DHT22;20784;51.332;12.410;2023-02-28T18:04:03;3.50;99.90
34542;DHT22;20784;51.332;12.410;2023-02-28T18:06:42;3.50;99.90
34542;DHT22;20784;51.332;12.410;2023-02-28T18:09:18;3.40;99.90
34542;DHT22;20784;51.332;12.410;2023-02-28T18:11:47;3.40;99.90
34542;DHT22;20784;51.332;12.410;2023-02-28T18:14:17;3.40;99.90
34542;DHT22;20784;51.332;12.410;2023-02-28T18:16:43;3.30;99.90
34542;DHT22;20784;51.332;12.410;2023-02-28T18:19:10;3.30;99.90
34542;DHT22;20784;51.332;12.410;2023-02-28T18:21:41;3.20;99.90
34542;DHT22;20784;51.332;12.410;2023-02-28T18:24:07;3.20;99.90
34542;DHT22;20784;51.332;12.410;2023-02-28T18:26:33;3.10;99.90
34542;DHT22;20784;51.332;12.410;2023-02-28T18:29:05;3.10;99.90
34542;DHT22;20784;51.332;12.410;2023-02-28T18:31:32;3.00;99.90
34542;DHT22;20784;51.332;12.410;2023-02-28T18:34:01;3.10;99.90
34542;DHT22;20784;51.332;12.410;2023-02-28T18:36:46;3.00;99.90
34542;DHT22;20784;51.332;12.410;2023-02-28T18:39:13;2.90;99.90
34542;DHT22;20784;51.332;12.410;2023-02-28T18:41:39;3.00;99.90
34542;DHT22;20784;51.332;12.410;2023-02-28T18:44:05;2.90;99.90
34542;DHT22;20784;51.332;12.410;2023-02-28T18:46:33;2.90;99.90
34542;DHT22;20784;51.332;12.410;2023-02-28T18:49:00;2.80;99.90
34542;DHT22;20784;51.332;12.410;2023-02-28T18:51:26;2.80;99.90
34542;DHT22;20784;51.332;12.410;2023-02-28T18:53:52;2.80;99.90
34542;DHT22;20784;51.332;12.410;2023-02-28T18:56:20;2.80;99.90
34542;DHT22;20784;51.332;12.410;2023-02-28T18:58:49;2.70;99.90
34542;DHT22;20784;51.332;12.410;2023-02-28T19:01:26;2.70;99.90
34542;DHT22;20784;51.332;12.410;2023-02-28T19:03:55;2.60;99.90
34542;DHT22;20784;51.332;12.410;2023-02-28T19:06:21;2.60;99.90
34542;DHT22;20784;51.332;12.410;2023-02-28T19:08:51;2.60;99.90
34542;DHT22;20784;51.332;12.410;2023-02-28T19:11:20;2.40;99.90
34542;DHT22;20784;51.332;12.410;2023-02-28T19:13:46;2.50;99.90
34542;DHT22;20784;51.332;12.410;2023-02-28T19:16:14;2.50;99.90
34542;DHT22;20784;51.332;12.410;2023-02-28T19:18:41;2.40;99.90
34542;DHT22;20784;51.332;12.410;2023-02-28T19:21:07;2.30;99.90
34542;DHT22;20784;51.332;12.410;2023-02-28T19:23:35;2.20;99.90
34542;DHT22;20784;51.332;12.410;2023-02-28T19:26:11;2.20;99.90
34542;DHT22;20784;51.332;12.410;2023-02-28T19:28:38;2.30;99.90
34542;DHT22;20784;51.332;12.410;2023-02-28T19:31:03;2.30;99.90
34542;DHT22;20784;51.332;12.410;2023-02-28T19:33:32;2.20;99.90
34542;DHT22;20784;51.332;12.410;2023-02-28T19:36:01;2.20;99.90
34542;DHT22;20784;51.332;12.410;2023-02-28T19:38:27;2.20;99.90
34542;DHT22;20784;51.332;12.410;2023-02-28T19:41:06;2.10;99.90
34542;DHT22;20784;51.332;12.410;2023-02-28T19:43:33;2.00;99.90
34542;DHT22;20784;51.332;12.410;2023-02-28T19:45:58;2.10;99.90
34542;DHT22;20784;51.332;12.410;2023-02-28T19:48:24;2.00;99.90
34542;DHT22;20784;51.332;12.410;2023-02-28T19:51:05;2.00;99.90
34542;DHT22;20784;51.332;12.410;2023-02-28T19:53:33;2.00;99.90
34542;DHT22;20784;51.332;12.410;2023-02-28T19:55:59;2.00;99.90
34542;DHT22;20784;51.332;12.410;2023-02-28T19:58:25;2.00;99.90
34542;DHT22;20784;51.332;12.410;2023-02-28T20:00:54;1.80;99.90
34542;DHT22;20784;51.332;12.410;2023-02-28T20:03:20;1.80;99.90
34542;DHT22;20784;51.332;12.410;2023-02-28T20:05:46;1.80;99.90
34542;DHT22;20784;51.332;12.410;2023-02-28T20:08:12;1.80;99.90
34542;DHT22;20784;51.332;12.410;2023-02-28T20:10:38;1.80;99.90
34542;DHT22;20784;51.332;12.410;2023-02-28T20:13:06;1.80;99.90
34542;DHT22;20784;51.332;12.410;2023-02-28T20:15:32;1.80;99.90
34542;DHT22;20784;51.332;12.410;2023-02-28T20:17:57;1.80;99.90
34542;DHT22;20784;51.332;12.410;2023-02-28T20:20:25;1.80;99.90
34542;DHT22;20784;51.332;12.410;2023-02-28T20:22:50;1.70;99.90
34542;DHT22;20784;51.332;12.410;2023-02-28T20:25:16;1.70;99.90
34542;DHT22;20784;51.332;12.410;2023-02-28T20:27:42;1.70;99.90
34542;DHT22;20784;51.332;12.410;2023-02-28T20:30:08;1.70;99.90
34542;DHT22;20784;51.332;12.410;2023-02-28T20:32:34;1.60;99.90
34542;DHT22;20784;51.332;12.410;2023-02-28T20:35:00;1.60;99.90
34542;DHT22;20784;51.332;12.410;2023-02-28T20:37:26;1.60;99.90
34542;DHT22;20784;51.332;12.410;2023-02-28T20:39:52;1.70;99.90
34542;DHT22;20784;51.332;12.410;2023-02-28T20:42:18;1.70;99.90
34542;DHT22;20784;51.332;12.410;2023-02-28T20:44:44;1.70;99.90
34542;DHT22;20784;51.332;12.410;2023-02-28T20:47:15;1.60;99.90
34542;DHT22;20784;51.332;12.410;2023-02-28T20:49:43;1.60;99.90
34542;DHT22;20784;51.332;12.410;2023-02-28T20:52:08;1.60;99.90
34542;DHT22;20784;51.332;12.410;2023-02-28T20:54:34;1.60;99.90
34542;DHT22;20784;51.332;12.410;2023-02-28T20:57:00;1.60;99.90
34542;DHT22;20784;51.332;12.410;2023-02-28T20:59:26;1.60;99.90
34542;DHT22;20784;51.332;12.410;2023-02-28T21:01:52;1.50;99.90
34542;DHT22;20784;51.332;12.410;2023-02-28T21:04:21;1.40;99.90
34542;DHT22;20784;51.332;12.410;2023-02-28T21:06:47;1.50;99.90
34542;DHT22;20784;51.332;12.410;2023-02-28T21:09:15;1.40;99.90
34542;DHT22;20784;51.332;12.410;2023-02-28T21:11:43;1.30;99.90
34542;DHT22;20784;51.332;12.410;2023-02-28T21:14:14;1.30;99.90
34542;DHT22;20784;51.332;12.410;2023-02-28T21:16:43;1.30;99.90
34542;DHT22;20784;51.332;12.410;2023-02-28T21:19:17;1.30;99.90
34542;DHT22;20784;51.332;12.410;2023-02-28T21:21:45;1.30;99.90
34542;DHT22;20784;51.332;12.410;2023-02-28T21:24:15;1.20;99.90
34542;DHT22;20784;51.332;12.410;2023-02-28T21:26:43;1.20;99.90
34542;DHT22;20784;51.332;12.410;2023-02-28T21:29:09;1.20;99.90
34542;DHT22;20784;51.332;12.410;2023-02-28T21:31:37;1.10;99.90
34542;DHT22;20784;51.332;12.410;2023-02-28T21:34:07;1.20;99.90
34542;DHT22;20784;51.332;12.410;2023-02-28T21:36:38;1.10;99.90
34542;DHT22;20784;51.332;12.410;2023-02-28T21:39:19;1.10;99.90
34542;DHT22;20784;51.332;12.410;2023-02-28T21:41:46;1.20;99.90
34542;DHT22;20784;51.332;12.410;2023-02-28T21:44:12;1.20;99.90
34542;DHT22;20784;51.332;12.410;2023-02-28T21:46:55;1.20;99.90
34542;DHT22;20784;51.332;12.410;2023-02-28T21:49:32;1.20;99.90
34542;DHT22;20784;51.332;12.410;2023-02-28T21:52:07;1.10;99.90
34542;DHT22;20784;51.332;12.410;2023-02-28T21:54:45;1.10;99.90
34542;DHT22;20784;51.332;12.410;2023-02-28T21:57:30;1.10;99.90
34542;DHT22;20784;51.332;12.410;2023-02-28T22:00:00;1.10;99.90
34542;DHT22;20784;51.332;12.410;2023-02-28T22:02:28;1.00;99.90
34542;DHT22;20784;51.332;12.410;2023-02-28T22:05:12;1.00;99.90
34542;DHT22;20784;51.332;12.410;2023-02-28T22:07:45;1.00;99.90
34542;DHT22;20784;51.332;12.410;2023-02-28T22:10:16;1.00;99.90
34542;DHT22;20784;51.332;12.410;2023-02-28T22:12:48;0.90;99.90
34542;DHT22;20784;51.332;12.410;2023-02-28T22:15:19;0.90;99.90
34542;DHT22;20784;51.332;12.410;2023-02-28T22:17:45;0.80;99.90
34542;DHT22;20784;51.332;12.410;2023-02-28T22:20:19;0.80;99.90
34542;DHT22;20784;51.332;12.410;2023-02-28T22:22:52;0.70;99.90